Terminal Aerodrome Forecast
Issued by NWS Wilmington, NC

Home | Current Version | Previous Version | Text Only | Print | Product List | Glossary On
Versions: 1 2 3 4 5 6 7 8 9 10 11 12 13 14 15 16 17 18
000
FTUS42 KILM 031721
TAFMYR
TAF
KMYR 031721Z 0318/0418 23012KT P6SM VCSH SCT015 BKN060
     FM032000 21014KT 4SM SHRA VCTS SCT020 BKN050CB
      TEMPO 0320/0324 3SM TSRA
     FM040400 24007KT P6SM SCT070 BKN100
     FM041300 26012G18KT P6SM BKN080=

USA.gov is the U.S. government's official web portal to all federal, state and local government web resources and services.